Airfield :
LOGIN :

Register | Disclaimer

   EN    FR    IT 

 










Legend :    VFR   Marginal VFR   IFR   Intensive IFR   Very Intensive IFR
Visi :
Ceiling :
>= 8 km
>= 3000ft
5 to 8 km
1000 to 3000 ft
1500m to 5 km
500 to 1000 ft
800 to 1500m
200 to 500 ft
< 800m
< 200 ft
Symbols :   Thunderstorms  Fog  Heavy snow  Heavy precipitations  Wind > 20 kt
SIGMETs :     Misc.  Thunderstorms  Icing  Turbulence  Mountain Waves  Volcanic Ashes







- Airport Elevation : 19 ft
- IATA code : VTS


EVVA - Ventspils Int.

CURRENT METAR :
  • 210220Z AUTO 22011KT 9999 FEW034 SCT044 BKN055 17/16 Q1007

EXPIRED METARs :
  • 210150Z AUTO 22010KT 9999 FEW017 BKN037 OVC044 17/15 Q1008
  • 210120Z AUTO 23010KT 9999 SCT041 BKN060 16/16 Q1008
  • 210050Z AUTO 23010KT 9999 FEW017 SCT043 SCT055 16/16 Q1008
  • 210020Z AUTO 23010KT 8000 FEW019 SCT031 BKN050 16/15 Q1009
  • 202350Z AUTO 23011KT 9000 -RA FEW021 BKN032 17/15 Q1009

TAF N/A
No reported NOTAMs for that airfield.



MET'MAP, your aeronautical weather chart ! - Copyright ORBIFLY December 2007 - Disclaimer

ORBIFLY MET'MAP TEAM :

Programming & Development : Alexandra Zaïnal
Concept & Development : Baudouin d'Aumeries
Co-Development & Prog : Marc-Olivier Méhu
Technical & hardware support : Manuel Goepfert

Contact : metmap@orbifly.com




SOURCES & CREDITS :

   NOAA